Flight Track Log - Related Links

Times and Time Zones

All times are in EDT time to prevent confusion due to time zone crossing. See the N137TK flight status page for this flight to view local times or setup timezone preferences in your user account.

Time Position Orientation Groundspeed Altitude Reporting Facility
EDT Latitude Longitude Course Direction KTS MPH feet Rate Location/Type
Thu 02:25:18 PM 42.2239 -83.5497 229° Southwest 142 163 1,200  Level Cleveland Center
Thu 02:25:55 PM 42.2064 -83.5772 229° Southwest 160 184 2,400 1,102 Climbing Cleveland Center
Thu 02:26:56 PM 42.1697 -83.6231 223° Southwest 188 216 3,000 293 Climbing Cleveland Center
Thu 02:27:58 PM 42.1353 -83.6717 226° Southwest 184 212 3,000 513 Level Cleveland Center
Thu 02:28:53 PM 42.0911 -83.6781 186° South 165 190 4,000 1,241 Climbing Cleveland Center
Thu 02:29:54 PM 42.0411 -83.6783 180° South 176 203 5,400 1,426 Climbing Cleveland Center
Thu 02:30:55 PM 41.9889 -83.6814 182° South 189 217 6,900 1,456 Climbing Cleveland Center
Thu 02:32:10 PM 41.9264 -83.6811 180° South 194 223 8,700 1,231 Climbing Cleveland Center
Thu 02:34:10 PM 41.8236 -83.7069 191° South 192 221 10,900 1,133 Climbing Cleveland Center
Thu 02:35:10 PM 41.7711 -83.7211 191° South 192 221 12,100 1,450 Climbing Cleveland Center
Thu 02:36:10 PM 41.7206 -83.7353 192° South 192 221 13,800 1,800 Climbing Cleveland Center
Thu 02:37:10 PM 41.6681 -83.7467 189° South 192 221 15,700 1,750 Climbing Cleveland Center
Thu 02:38:10 PM 41.6158 -83.7578 189° South 197 227 17,300 1,500 Climbing Cleveland Center
Thu 02:39:10 PM 41.5611 -83.7692 189° South 197 227 18,700 1,350 Climbing Cleveland Center
Thu 02:40:10 PM 41.5089 -83.7803 189° South 197 227 20,000 1,350 Climbing Cleveland Center
Thu 02:41:10 PM 41.4542 -83.7917 189° South 202 232 21,400 1,300 Climbing Cleveland Center
Thu 02:42:10 PM 41.3997 -83.8028 189° South 202 232 22,600 1,200 Climbing Cleveland Center
Thu 02:43:10 PM 41.3492 -83.8167 192° South 202 232 23,800 1,100 Climbing Cleveland Center
Thu 02:44:10 PM 41.2969 -83.8281 189° South 202 232 24,800 742 Climbing Cleveland Center
Thu 02:46:08 PM 41.1817 -83.8511 189° South 219 252 26,000 400 Climbing Indianapolis Center
Thu 02:47:10 PM 41.1094 -83.8672 190° South 256 295 26,000  Level Indianapolis Center
Thu 02:48:12 PM 41.0364 -83.8833 189° South 274 315 26,000  Level Indianapolis Center
Thu 02:49:14 PM 40.9575 -83.8989 188° South 283 326 26,000  Level Indianapolis Center
Thu 02:50:16 PM 40.8783 -83.9175 190° South 287 330 26,000  Level Indianapolis Center
Thu 02:51:18 PM 40.7839 -83.9378 189° South 292 336 26,000  Level Indianapolis Center
Thu 02:52:20 PM 40.7033 -83.9547 189° South 291 335 26,000 145 Level Indianapolis Center
Thu 02:53:22 PM 40.6228 -83.9719 189° South 291 335 26,300 387 Climbing Indianapolis Center
Thu 02:54:24 PM 40.5461 -83.9889 190° South 280 322 26,800 339 Climbing Indianapolis Center
Thu 02:55:26 PM 40.4700 -84.0039 189° South 276 318 27,000 97 Climbing Indianapolis Center
Thu 02:56:28 PM 40.3919 -84.0208 189° South 281 323 27,000  Level Indianapolis Center
Thu 02:57:31 PM 40.3108 -84.0375 189° South 290 334 27,000  Level Indianapolis Center
Thu 02:58:33 PM 40.2161 -84.0553 188° South 292 336 27,000  Level Indianapolis Center
Thu 02:59:35 PM 40.1358 -84.0686 187° South 290 334 27,000  Level Indianapolis Center
Thu 03:00:37 PM 40.0547 -84.0819 187° South 292 336 27,000  Level Indianapolis Center
Thu 03:01:39 PM 39.9733 -84.0964 188° South 294 338 27,000  Level Indianapolis Center
Thu 03:02:41 PM 39.8919 -84.1097 187° South 292 336 27,000  Level Indianapolis Center
Thu 03:03:43 PM 39.7964 -84.1244 187° South 294 338 27,000  Level Indianapolis Center
Thu 03:04:45 PM 39.7147 -84.1386 188° South 294 338 27,000  Level Indianapolis Center
Thu 03:05:47 PM 39.6344 -84.1508 187° South 291 335 27,000  Level Indianapolis Center
Thu 03:06:49 PM 39.5531 -84.1639 187° South 292 336 27,000  Level Indianapolis Center
Thu 03:07:51 PM 39.4703 -84.1661 181° South 295 339 27,000  Level Indianapolis Center
Thu 03:08:53 PM 39.3911 -84.1722 183° South 283 326 27,000  Level Indianapolis Center
Thu 03:09:55 PM 39.3097 -84.1767 182° South 288 331 27,000  Level Indianapolis Center
Thu 03:10:57 PM 39.2144 -84.1814 182° South 290 334 27,000  Level Indianapolis Center
Thu 03:11:59 PM 39.1344 -84.1847 182° South 286 329 27,000  Level Indianapolis Center
Thu 03:13:01 PM 39.0542 -84.1889 182° South 286 329 27,000  Level Indianapolis Center
Thu 03:14:03 PM 38.9742 -84.1939 183° South 286 329 27,000  Level Indianapolis Center
Thu 03:15:05 PM 38.8939 -84.1964 181° South 285 328 27,000  Level Indianapolis Center
Thu 03:16:08 PM 38.8147 -84.2008 183° South 283 326 27,000  Level Indianapolis Center
Thu 03:17:10 PM 38.7342 -84.2050 182° South 285 328 27,000  Level Indianapolis Center
Thu 03:18:12 PM 38.6406 -84.2089 182° South 284 327 27,000  Level Indianapolis Center
Thu 03:19:14 PM 38.5661 -84.2122 182° South 288 331 27,000  Level Indianapolis Center
Thu 03:20:16 PM 38.4728 -84.2169 182° South 287 330 27,000  Level Indianapolis Center
Thu 03:21:18 PM 38.3931 -84.2200 182° South 287 330 27,000  Level Indianapolis Center
Thu 03:22:20 PM 38.3122 -84.2250 183° South 289 333 27,000  Level Indianapolis Center
Thu 03:23:22 PM 38.2322 -84.2300 183° South 287 330 27,000  Level Indianapolis Center
Thu 03:24:24 PM 38.1525 -84.2328 182° South 288 331 27,000  Level Indianapolis Center
Thu 03:25:26 PM 38.0731 -84.2383 183° South 286 329 27,000  Level Indianapolis Center
Thu 03:26:28 PM 37.9800 -84.2414 181° South 288 331 27,000  Level Indianapolis Center
Thu 03:27:30 PM 37.9014 -84.2442 182° South 285 328 27,000  Level Indianapolis Center
Thu 03:28:32 PM 37.8239 -84.2486 183° South 280 322 27,000  Level Indianapolis Center
Thu 03:29:34 PM 37.7453 -84.2506 181° South 282 325 27,000  Level Indianapolis Center
Thu 03:30:36 PM 37.6661 -84.2561 183° South 284 327 27,000  Level Indianapolis Center
Thu 03:31:38 PM 37.5733 -84.2586 181° South 285 328 27,000  Level Indianapolis Center
Thu 03:32:40 PM 37.4936 -84.2631 183° South 285 328 27,000  Level Indianapolis Center
Thu 03:33:42 PM 37.4142 -84.2667 182° South 286 329 27,000  Level Indianapolis Center
Thu 03:34:44 PM 37.3356 -84.2703 182° South 285 328 27,000  Level Indianapolis Center
Thu 03:35:46 PM 37.2581 -84.2869 190° South 285 328 27,000  Level Indianapolis Center
Thu 03:36:49 PM 37.1722 -84.3206 197° South 278 320 27,000  Level Indianapolis Center
Thu 03:37:51 PM 37.0989 -84.3497 198° South 277 319 27,000  Level Indianapolis Center
Thu 03:38:53 PM 37.0244 -84.3753 195° South 275 316 27,000  Level Indianapolis Center
Thu 03:39:55 PM 36.9453 -84.3789 182° South 284 327 27,000  Level Indianapolis Center
Thu 03:40:57 PM 36.8650 -84.3797 180° South 287 330 27,000  Level Indianapolis Center
Thu 03:41:59 PM 36.7725 -84.3822 181° South 285 328 27,000  Level Indianapolis Center
Thu 03:43:01 PM 36.6922 -84.3833 181° South 288 331 27,000  Level Indianapolis Center
Thu 03:44:03 PM 36.6125 -84.3853 181° South 286 329 27,000  Level Indianapolis Center
Thu 03:45:05 PM 36.5322 -84.3858 180° South 288 331 27,000  Level Indianapolis Center
Thu 03:46:07 PM 36.4556 -84.3869 181° South 287 330 27,000  Level Indianapolis Center
Thu 03:47:09 PM 36.3589 -84.3875 180° South 287 330 27,000  Level Indianapolis Center
Thu 03:48:11 PM 36.2772 -84.3894 181° South 293 337 27,000  Level Indianapolis Center
Thu 03:49:10 PM 36.1975 -84.3911 181° South 288 331 27,000  Level Atlanta Center
Thu 03:50:10 PM 36.1161 -84.3933 181° South 288 331 27,000  Level Atlanta Center
Thu 03:51:10 PM 36.0369 -84.3931 180° South 288 331 27,000  Level Atlanta Center
Thu 03:52:10 PM 35.9578 -84.3953 181° South 288 331 27,000  Level Atlanta Center
Thu 03:53:10 PM 35.8764 -84.3975 181° South 288 331 27,000  Level Atlanta Center
Thu 03:54:10 PM 35.8053 -84.3997 181° South 288 331 27,000  Level Atlanta Center
Thu 03:55:10 PM 35.7239 -84.3994 180° South 288 331 27,000  Level Atlanta Center
Thu 03:56:10 PM 35.6428 -84.4017 181° South 288 331 27,000  Level Atlanta Center
Thu 03:57:10 PM 35.5633 -84.4039 181° South 288 331 27,000  Level Atlanta Center
Thu 03:58:10 PM 35.4819 -84.4061 181° South 288 331 27,000  Level Atlanta Center
Thu 03:59:10 PM 35.4006 -84.4056 180° South 288 331 27,000  Level Atlanta Center
Thu 04:00:10 PM 35.3214 -84.4078 181° South 288 331 27,000  Level Atlanta Center
Thu 04:01:10 PM 35.2400 -84.4100 181° South 288 331 27,000  Level Atlanta Center
Thu 04:02:10 PM 35.1628 -84.4122 181° South 288 331 27,000  Level Atlanta Center
Thu 04:03:10 PM 35.0814 -84.4119 180° South 288 331 27,000  Level Atlanta Center
Thu 04:04:10 PM 35.0000 -84.4142 181° South 288 331 27,000  Level Atlanta Center
Thu 04:05:10 PM 34.9228 -84.4136 180° South 288 331 27,000  Level Atlanta Center
Thu 04:06:10 PM 34.8372 -84.4133 180° South 288 331 27,000  Level Atlanta Center
Thu 04:07:10 PM 34.7558 -84.4181 183° South 288 331 27,000  Level Atlanta Center
Thu 04:08:10 PM 34.6806 -84.4178 180° South 288 331 27,000 -50 Level Atlanta Center
Thu 04:09:10 PM 34.5992 -84.4197 181° South 288 331 26,900  Descending Atlanta Center
Thu 04:10:10 PM 34.5178 -84.4219 181° South 288 331 27,000 50 Climbing Atlanta Center
Thu 04:11:10 PM 34.4406 -84.4217 180° South 288 331 27,000  Level Atlanta Center
Thu 04:12:10 PM 34.3592 -84.4239 181° South 288 331 27,000  Level Atlanta Center
Thu 04:13:10 PM 34.2800 -84.4233 180° South 288 331 27,000  Level Atlanta Center
Thu 04:14:10 PM 34.1986 -84.4256 181° South 288 331 27,000  Level Atlanta Center
Thu 04:15:10 PM 34.1172 -84.4278 181° South 293 337 27,000  Level Atlanta Center
Thu 04:16:10 PM 34.0400 -84.4300 181° South 288 331 27,000  Level Atlanta Center
Thu 04:17:10 PM 33.9564 -84.4319 181° South 288 331 27,000  Level Atlanta Center
Thu 04:18:10 PM 33.8750 -84.4317 180° South 288 331 27,000  Level Atlanta Center
Thu 04:19:10 PM 33.8061 -84.4339 182° South 288 331 27,000  Level Atlanta Center
Thu 04:20:10 PM 33.7289 -84.4358 181° South 288 331 27,000  Level Atlanta Center
Thu 04:21:10 PM 33.6517 -84.4356 180° South 288 331 27,000  Level Atlanta Center
Thu 04:22:10 PM 33.5619 -84.4078 166° South 289 333 27,000  Level Atlanta Center
Thu 04:23:10 PM 33.4850 -84.3775 162° South 294 338 27,000  Level Atlanta Center
Thu 04:24:10 PM 33.4056 -84.3450 161° South 300 345 27,000  Level Atlanta Center
Thu 04:25:10 PM 33.3369 -84.3147 160° South 305 351 27,000  Level Atlanta Center
Thu 04:26:10 PM 33.2597 -84.2847 162° South 305 351 27,000  Level Atlanta Center
Thu 04:27:10 PM 33.1844 -84.2522 160° South 300 345 27,000  Level Atlanta Center
Thu 04:28:10 PM 33.1053 -84.2197 161° South 300 345 27,000  Level Atlanta Center
Thu 04:29:10 PM 33.0281 -84.1850 159° South 300 345 27,000  Level Atlanta Center
Thu 04:30:10 PM 32.9447 -84.1553 163° South 300 345 27,000  Level Atlanta Center
Thu 04:31:10 PM 32.8675 -84.1206 159° South 300 345 27,000  Level Atlanta Center
Thu 04:32:10 PM 32.7903 -84.0883 161° South 300 345 27,000  Level Atlanta Center
Thu 04:33:10 PM 32.7131 -84.0586 162° South 300 345 27,000  Level Atlanta Center
Thu 04:34:10 PM 32.6358 -84.0264 161° South 300 345 27,000  Level Atlanta Center
Thu 04:35:10 PM 32.5586 -83.9944 161° South 300 345 27,000  Level Atlanta Center
Thu 04:36:10 PM 32.4792 -83.9625 161° South 300 345 27,000  Level Atlanta Center
Thu 04:37:10 PM 32.4019 -83.9306 161° South 300 345 27,000  Level Atlanta Center
Thu 04:38:10 PM 32.3247 -83.8986 161° South 300 345 27,000  Level Atlanta Center
Thu 04:39:10 PM 32.2433 -83.8644 160° South 300 345 27,000  Level Atlanta Center
Thu 04:40:10 PM 32.1681 -83.8328 160° South 300 345 27,000  Level Atlanta Center
Thu 04:41:10 PM 32.0867 -83.8036 163° South 300 345 27,000  Level Atlanta Center
Thu 04:44:03 PM 31.8611 -83.7072 160° South 301 346 27,000  Level Jacksonville Center
Thu 04:45:03 PM 31.7842 -83.6772 162° South 291 335 27,000  Level Jacksonville Center
Thu 04:46:03 PM 31.7050 -83.6422 159° South 303 349 27,000  Level Jacksonville Center
Thu 04:47:03 PM 31.6258 -83.6122 162° South 303 349 27,000  Level Jacksonville Center
Thu 04:48:03 PM 31.5444 -83.5825 163° South 303 349 27,000  Level Jacksonville Center
Thu 04:49:03 PM 31.4675 -83.5528 162° South 303 349 27,000  Level Jacksonville Center
Thu 04:50:03 PM 31.3883 -83.5206 161° South 297 342 27,000  Level Jacksonville Center
Thu 04:51:03 PM 31.3111 -83.4908 162° South 297 342 27,000  Level Jacksonville Center
Thu 04:52:03 PM 31.2361 -83.4586 160° South 297 342 27,000  Level Jacksonville Center
Thu 04:53:03 PM 31.1547 -83.4292 163° South 297 342 27,000  Level Jacksonville Center
Thu 04:54:03 PM 31.0797 -83.3972 160° South 302 348 27,000  Level Jacksonville Center
Thu 04:55:03 PM 31.0006 -83.3675 162° South 297 342 27,000  Level Jacksonville Center
Thu 04:56:03 PM 30.9233 -83.3358 161° South 297 342 27,000  Level Jacksonville Center
Thu 04:57:03 PM 30.8442 -83.3064 162° South 297 342 27,000  Level Jacksonville Center
Thu 04:58:03 PM 30.7794 -83.2794 160° South 297 342 27,000  Level Jacksonville Center
Thu 04:59:03 PM 30.7044 -83.2406 156° South 292 336 27,000  Level Jacksonville Center
Thu 05:00:03 PM 30.6272 -83.2039 158° South 292 336 27,000  Level Jacksonville Center
Thu 05:01:03 PM 30.5522 -83.1653 156° South 292 336 27,000  Level Jacksonville Center
Thu 05:02:03 PM 30.4750 -83.1264 157° South 292 336 27,000  Level Jacksonville Center
Thu 05:03:03 PM 30.4000 -83.0878 156° South 292 336 27,000  Level Jacksonville Center
Thu 05:04:03 PM 30.3228 -83.0489 157° South 292 336 27,000  Level Jacksonville Center
Thu 05:05:03 PM 30.2497 -83.0128 157° South 292 336 27,000  Level Jacksonville Center
Thu 05:06:03 PM 30.1747 -82.9742 156° South 292 336 27,000  Level Jacksonville Center
Thu 05:07:03 PM 30.0994 -82.9381 157° South 292 336 27,000  Level Jacksonville Center
Thu 05:08:03 PM 30.0264 -82.9022 157° South 292 336 27,000  Level Jacksonville Center
Thu 05:09:03 PM 29.9514 -82.8661 157° South 292 336 27,000  Level Jacksonville Center
Thu 05:10:03 PM 29.8781 -82.8328 158° South 292 336 27,000  Level Jacksonville Center
Thu 05:11:03 PM 29.8072 -82.7944 155° Southeast 292 336 27,000  Level Jacksonville Center
Thu 05:12:03 PM 29.7319 -82.7586 158° South 292 336 27,000  Level Jacksonville Center
Thu 05:13:03 PM 29.6589 -82.7253 158° South 292 336 27,000  Level Jacksonville Center
Thu 05:14:03 PM 29.5878 -82.6872 155° Southeast 292 336 27,000  Level Jacksonville Center
Thu 05:15:03 PM 29.5147 -82.6514 157° South 287 330 27,000  Level Jacksonville Center
Thu 05:16:03 PM 29.4375 -82.6136 157° South 293 337 27,000  Level Jacksonville Center
Thu 05:17:03 PM 29.3642 -82.5781 157° South 293 337 27,000  Level Jacksonville Center
Thu 05:18:03 PM 29.2889 -82.5403 156° South 293 337 27,000  Level Jacksonville Center
Thu 05:19:03 PM 29.2158 -82.5047 157° South 293 337 27,000  Level Jacksonville Center
Thu 05:20:03 PM 29.1406 -82.4694 158° South 293 337 27,000  Level Jacksonville Center
Thu 05:21:03 PM 29.0633 -82.4458 165° South 288 331 27,000  Level Jacksonville Center
Thu 05:22:03 PM 28.9861 -82.4369 174° South 282 325 27,000  Level Jacksonville Center
Thu 05:23:03 PM 28.9067 -82.4419 183° South 277 319 27,000  Level Jacksonville Center
Thu 05:24:03 PM 28.8317 -82.4611 193° South 277 319 27,000  Level Jacksonville Center
Thu 05:25:03 PM 28.7567 -82.4781 191° South 277 319 27,000  Level Jacksonville Center
Thu 05:26:03 PM 28.6814 -82.4975 193° South 277 319 27,000  Level Jacksonville Center
Thu 05:27:03 PM 28.6064 -82.5167 193° South 277 319 27,000  Level Jacksonville Center
Thu 05:28:03 PM 28.5292 -82.5358 192° South 277 319 27,000  Level Jacksonville Center
Thu 05:29:03 PM 28.4542 -82.5550 193° South 277 319 27,000  Level Jacksonville Center
Thu 05:30:03 PM 28.3769 -82.5742 192° South 277 319 27,000  Level Jacksonville Center
Thu 05:31:03 PM 28.2997 -82.5908 191° South 282 325 27,000  Level Jacksonville Center
Thu 05:32:46 PM 28.1575 -82.6278 193° South 283 326 27,000  Level Miami Center
Thu 05:33:46 PM 28.0819 -82.6450 191° South 283 326 27,000  Level Miami Center
Thu 05:34:46 PM 28.0061 -82.6600 190° South 283 326 27,000  Level Miami Center
Thu 05:35:46 PM 27.9292 -82.6536 176° South 283 326 27,000 -450 Level Miami Center
Thu 05:36:46 PM 27.8422 -82.6350 169° South 288 331 26,100 -850 Descending Miami Center
Thu 05:37:46 PM 27.7658 -82.6194 170° South 316 364 25,300 -900 Descending Miami Center
Thu 05:38:46 PM 27.6747 -82.6008 170° South 326 375 24,300 -1,050 Descending Miami Center
Thu 05:39:46 PM 27.5839 -82.5800 169° South 326 375 23,200 -1,300 Descending Miami Center
Thu 05:40:46 PM 27.4950 -82.5592 168° South 326 375 21,700 -1,500 Descending Miami Center
Thu 05:41:46 PM 27.4058 -82.5406 170° South 331 381 20,200 -1,450 Descending Miami Center
Thu 05:42:46 PM 27.3250 -82.5250 170° South 331 381 18,800 -1,100 Descending Miami Center
Thu 05:43:46 PM 27.2381 -82.5067 169° South 331 381 18,000 -500 Descending Miami Center
Thu 05:44:46 PM 27.1575 -82.4889 169° South 321 369 17,800 -650 Descending Miami Center
Thu 05:45:46 PM 27.0747 -82.4708 169° South 310 357 16,700 -1,050 Descending Miami Center
Thu 05:46:46 PM 26.9900 -82.4528 169° South 310 357 15,700 -1,000 Descending Miami Center
Thu 05:47:46 PM 26.9111 -82.4372 170° South 310 357 14,700 -1,000 Descending Miami Center
Thu 05:48:46 PM 26.8286 -82.4147 166° South 310 357 13,700 -1,100 Descending Miami Center
Thu 05:49:46 PM 26.7456 -82.3992 171° South 310 357 12,500 -1,200 Descending Miami Center
Thu 05:50:46 PM 26.6689 -82.3839 170° South 304 350 11,300 -1,100 Descending Miami Center
Thu 05:51:46 PM 26.5931 -82.3525 160° South 299 344 10,300 -1,000 Descending Miami Center
Thu 05:52:46 PM 26.5258 -82.3031 147° Southeast 288 331 9,300 -1,000 Descending Miami Center
Thu 05:53:46 PM 26.4742 -82.2381 132° Southeast 282 325 8,300 -1,000 Descending Miami Center
Thu 05:54:46 PM 26.4244 -82.1686 129° Southeast 282 325 7,300 -1,000 Descending Miami Center
Thu 05:55:46 PM 26.3789 -82.0992 126° Southeast 277 319 6,300 -1,000 Descending Miami Center
Thu 05:56:46 PM 26.3483 -82.0236 114° Southeast 272 313 5,300 -1,000 Descending Miami Center
Thu 05:57:46 PM 26.3175 -81.9461 114° Southeast 272 313 4,300 -1,000 Descending Miami Center
Thu 05:59:00 PM 26.2396 -81.8861 130° Southeast  Level FlightAware Approximate
Thu 06:06:00 PM 26.1524 -81.7756 130° Southeast  Level Estimated
Thu 06:07:00 PM 26.1524 -81.7756 130° Southeast  Level Estimated
Thu 06:08:00 PM 26.1524 -81.7756 130° Southeast  Level Estimated
Thu 06:09:00 PM 26.1524 -81.7756 130° Southeast  Level Estimated
Thu 06:10:00 PM 26.1524 -81.7756 130° Southeast  Level Estimated

Login

Don't have an account? Register now (free) for customized features, flight alerts, and more!